Time;durP1;ratioP1;P1;durP2;ratioP2;P2;SDS_P1;SDS_P2;PMS_P1;PMS_P2;Temp;Humidity;BMP_temperature;BMP_pressure;BME280_temperature;BME280_humidity;BME280_pressure;Samples;Min_cycle;Max_cycle;Signal;HPM_P1;HPM_P2
2024/01/28 10:52:01;;;;;;;;;45.67;39.00;;;;;;;;5084580;27;14314;-78
2024/01/28 10:54:27;;;;;;;;;43.33;38.33;;;;;;;;5087781;28;8829;-77
2024/01/28 10:56:53;;;;;;;;;40.67;38.00;;;;;;;;5088228;28;8805;-78
2024/01/28 10:59:19;;;;;;;;;48.00;40.00;;;;;;;;5098275;28;8800;-77
2024/01/28 11:01:45;;;;;;;;;39.50;36.25;;;;;;;;5108002;28;11508;-76
2024/01/28 11:04:10;;;;;;;;;36.25;28.25;;;;;;;;5107174;28;8784;-78
2024/01/28 11:06:35;;;;;;;;;28.50;26.75;;;;;;;;5108119;28;8830;-77
2024/01/28 11:09:03;;;;;;;;;34.00;30.25;;;;;;;;5104901;28;8827;-77
2024/01/28 11:11:30;;;;;;;;;42.00;34.75;;;;;;;;5107699;28;8815;-78
2024/01/28 11:13:55;;;;;;;;;35.75;32.50;;;;;;;;5107788;28;11499;-78
2024/01/28 11:16:21;;;;;;;;;31.00;31.00;;;;;;;;5107255;28;11510;-73
2024/01/28 11:18:54;;;;;;;;;29.25;27.25;;;;;;;;5101031;28;8783;-74
2024/01/28 11:21:19;;;;;;;;;28.75;26.75;;;;;;;;5087442;28;9700;-76
2024/01/28 11:23:47;;;;;;;;;31.75;27.50;;;;;;;;5087433;28;11463;-76
2024/01/28 11:26:19;;;;;;;;;31.25;28.50;;;;;;;;5086985;28;8810;-76
2024/01/28 11:28:45;;;;;;;;;31.25;27.00;;;;;;;;5085779;28;11474;-76
2024/01/28 11:31:19;;;;;;;;;32.00;27.25;;;;;;;;5086908;28;11468;-76
2024/01/28 11:33:45;;;;;;;;;29.50;27.50;;;;;;;;5087103;28;11240;-76
2024/01/28 11:36:11;;;;;;;;;28.25;27.25;;;;;;;;5086438;28;10836;-75
2024/01/28 11:38:39;;;;;;;;;25.25;24.50;;;;;;;;5085892;28;10549;-74
2024/01/28 11:41:05;;;;;;;;;27.25;26.75;;;;;;;;5085498;28;8814;-76
2024/01/28 11:43:31;;;;;;;;;30.33;29.00;;;;;;;;5085875;28;9667;-76
2024/01/28 11:45:57;;;;;;;;;29.67;28.00;;;;;;;;5079712;28;8908;-75
2024/01/28 11:48:23;;;;;;;;;32.33;30.33;;;;;;;;5070432;28;8828;-74
2024/01/28 11:50:48;;;;;;;;;31.25;31.00;;;;;;;;5096720;28;9376;-74
2024/01/28 11:53:13;;;;;;;;;19.50;18.25;;;;;;;;5107257;28;8782;-74
2024/01/28 11:55:38;;;;;;;;;83.50;67.00;;;;;;;;5106742;28;8918;-74
2024/01/28 11:58:04;;;;;;;;;99.67;84.33;;;;;;;;5088040;27;8810;-78
2024/01/28 12:00:29;;;;;;;;;30.50;28.75;;;;;;;;5088922;28;8826;-73
2024/01/28 12:02:55;;;;;;;;;23.00;21.00;;;;;;;;5077528;28;8794;-75
2024/01/28 12:05:21;;;;;;;;;32.75;28.00;;;;;;;;5092984;28;8824;-74
2024/01/28 12:07:46;;;;;;;;;28.00;21.25;;;;;;;;5075163;28;8849;-74
2024/01/28 12:10:12;;;;;;;;;18.25;17.00;;;;;;;;5092282;28;11826;-72
2024/01/28 12:12:41;;;;;;;;;18.50;17.50;;;;;;;;5093400;28;8778;-72
2024/01/28 12:15:07;;;;;;;;;18.00;15.75;;;;;;;;5074730;28;11012;-73
2024/01/28 12:17:36;;;;;;;;;18.75;17.00;;;;;;;;5092951;28;10973;-75
2024/01/28 12:20:03;;;;;;;;;19.75;16.75;;;;;;;;5091515;28;11240;-75
2024/01/28 12:22:34;;;;;;;;;15.75;15.75;;;;;;;;5093125;28;11201;-74
2024/01/28 12:25:05;;;;;;;;;14.50;12.00;;;;;;;;5092486;28;11221;-75
2024/01/28 12:27:31;;;;;;;;;13.75;11.50;;;;;;;;5093008;28;11035;-72
2024/01/28 12:29:56;;;;;;;;;15.00;13.00;;;;;;;;5091562;28;11139;-74
2024/01/28 12:32:21;;;;;;;;;11.75;11.25;;;;;;;;5092649;28;8894;-77
2024/01/28 12:34:46;;;;;;;;;10.25;9.75;;;;;;;;5092422;28;8825;-74
2024/01/28 12:37:12;;;;;;;;;12.00;11.00;;;;;;;;5092758;28;8890;-73
2024/01/28 12:39:37;;;;;;;;;10.50;9.75;;;;;;;;5091994;28;8802;-74
2024/01/28 12:42:02;;;;;;;;;2.00;2.00;;;;;;;;5092257;28;8923;-75
2024/01/28 12:44:27;;;;;;;;;11.75;9.75;;;;;;;;5092022;28;8790;-75
2024/01/28 12:46:53;;;;;;;;;11.00;9.00;;;;;;;;5091853;28;8901;-74
2024/01/28 12:49:18;;;;;;;;;9.25;9.25;;;;;;;;5090682;28;9511;-74
2024/01/28 12:51:43;;;;;;;;;7.25;3.00;;;;;;;;5091650;28;8814;-74
2024/01/28 12:54:09;;;;;;;;;7.75;7.00;;;;;;;;5091852;28;8884;-73
2024/01/28 12:56:34;;;;;;;;;7.00;7.00;;;;;;;;5090109;28;8782;-74
2024/01/28 12:58:59;;;;;;;;;5.00;5.00;;;;;;;;5088561;28;8844;-73
2024/01/28 13:01:25;;;;;;;;;8.75;7.25;;;;;;;;5073445;28;8806;-72
2024/01/28 13:03:50;;;;;;;;;8.00;5.00;;;;;;;;5091787;28;8778;-72
2024/01/28 13:06:15;;;;;;;;;9.00;5.50;;;;;;;;5091876;28;8828;-72
2024/01/28 13:08:41;;;;;;;;;8.00;5.00;;;;;;;;5091043;28;8918;-73
2024/01/28 13:11:06;;;;;;;;;5.00;5.00;;;;;;;;5091780;28;8794;-74
2024/01/28 13:13:33;;;;;;;;;5.75;5.75;;;;;;;;5091258;28;8786;-75
2024/01/28 13:15:59;;;;;;;;;7.00;5.00;;;;;;;;5073375;28;8824;-75
2024/01/28 13:18:24;;;;;;;;;7.25;6.50;;;;;;;;5090747;28;10975;-74
2024/01/28 13:20:49;;;;;;;;;9.00;7.00;;;;;;;;5091722;28;8813;-74
2024/01/28 13:23:14;;;;;;;;;4.75;4.75;;;;;;;;5091825;28;8810;-75
2024/01/28 13:25:40;;;;;;;;;7.00;3.75;;;;;;;;5091649;28;8802;-76
2024/01/28 13:28:06;;;;;;;;;4.75;4.00;;;;;;;;5072333;28;8822;-75
2024/01/28 13:30:31;;;;;;;;;3.00;3.00;;;;;;;;5085677;28;8805;-75
2024/01/28 13:32:57;;;;;;;;;3.00;3.00;;;;;;;;5073453;28;10683;-75
2024/01/28 13:35:22;;;;;;;;;2.25;2.00;;;;;;;;5078308;28;8817;-74
2024/01/28 13:37:47;;;;;;;;;4.00;3.00;;;;;;;;5073249;28;8810;-75
2024/01/28 13:40:13;;;;;;;;;3.25;3.00;;;;;;;;5090709;28;8833;-75
2024/01/28 13:42:38;;;;;;;;;4.00;4.00;;;;;;;;5073403;28;8786;-75
2024/01/28 13:45:06;;;;;;;;;4.50;3.75;;;;;;;;5073089;28;8834;-75
2024/01/28 13:47:32;;;;;;;;;5.00;4.75;;;;;;;;5073161;28;8918;-74
2024/01/28 13:49:59;;;;;;;;;12.00;7.00;;;;;;;;5071580;28;10880;-74
2024/01/28 13:52:25;;;;;;;;;5.00;5.00;;;;;;;;5091159;28;10967;-74
2024/01/28 13:54:50;;;;;;;;;3.75;3.50;;;;;;;;5090932;28;11053;-75
2024/01/28 13:57:17;;;;;;;;;5.00;5.00;;;;;;;;5091685;28;8825;-74
2024/01/28 13:59:42;;;;;;;;;3.00;1.25;;;;;;;;5105112;28;8831;-74
2024/01/28 14:02:08;;;;;;;;;11.50;9.25;;;;;;;;5111249;28;10533;-75
2024/01/28 14:04:33;;;;;;;;;7.50;6.00;;;;;;;;5111504;28;8868;-75
2024/01/28 14:06:58;;;;;;;;;3.00;3.00;;;;;;;;5092296;28;8942;-76
2024/01/28 14:09:24;;;;;;;;;8.25;6.50;;;;;;;;5096464;28;8812;-74
2024/01/28 14:11:49;;;;;;;;;4.75;4.00;;;;;;;;5072911;28;8806;-74
2024/01/28 14:14:14;;;;;;;;;4.75;4.25;;;;;;;;5090699;28;8816;-72
2024/01/28 14:16:41;;;;;;;;;4.00;4.00;;;;;;;;5107271;28;8786;-73
2024/01/28 14:19:06;;;;;;;;;7.50;5.00;;;;;;;;5101949;28;8790;-73
2024/01/28 14:21:31;;;;;;;;;4.00;4.00;;;;;;;;5090478;28;11042;-73
2024/01/28 14:23:57;;;;;;;;;6.00;4.00;;;;;;;;5090868;28;8766;-73
2024/01/28 14:26:22;;;;;;;;;3.00;3.00;;;;;;;;5090402;28;8802;-73
2024/01/28 14:28:47;;;;;;;;;4.25;4.25;;;;;;;;5089684;28;8813;-73
2024/01/28 14:31:13;;;;;;;;;7.75;4.75;;;;;;;;5090610;28;8896;-83
2024/01/28 14:33:39;;;;;;;;;7.00;6.00;;;;;;;;5090401;28;8786;-76
2024/01/28 14:36:04;;;;;;;;;3.75;3.75;;;;;;;;5090100;28;8794;-70
2024/01/28 14:38:29;;;;;;;;;1.75;1.75;;;;;;;;5071438;28;8928;-72
2024/01/28 14:40:55;;;;;;;;;2.50;2.00;;;;;;;;5090667;28;8814;-73
2024/01/28 14:43:20;;;;;;;;;1.75;1.75;;;;;;;;5090854;28;8858;-73
2024/01/28 14:45:45;;;;;;;;;1.00;1.00;;;;;;;;5090307;28;8829;-74
2024/01/28 14:48:11;;;;;;;;;4.00;1.50;;;;;;;;5089307;28;8834;-73
2024/01/28 14:50:39;;;;;;;;;2.00;1.00;;;;;;;;5090353;28;8825;-72
2024/01/28 14:53:05;;;;;;;;;2.75;2.00;;;;;;;;5090450;28;8823;-72
2024/01/28 14:55:30;;;;;;;;;4.00;1.50;;;;;;;;5089879;28;10918;-72
2024/01/28 14:57:55;;;;;;;;;2.50;1.50;;;;;;;;5089625;28;8874;-73
2024/01/28 15:00:20;;;;;;;;;2.00;2.00;;;;;;;;5089680;28;9556;-73
2024/01/28 15:02:46;;;;;;;;;3.50;2.00;;;;;;;;5090220;28;8806;-73
2024/01/28 15:05:11;;;;;;;;;1.25;1.25;;;;;;;;5089113;28;8937;-73
2024/01/28 15:07:37;;;;;;;;;3.25;2.00;;;;;;;;5088555;28;8841;-75
2024/01/28 15:10:03;;;;;;;;;3.00;2.50;;;;;;;;5087154;28;8805;-73
2024/01/28 15:12:28;;;;;;;;;5.00;3.00;;;;;;;;5087782;28;8798;-79
2024/01/28 15:14:53;;;;;;;;;6.25;6.25;;;;;;;;5088410;28;10889;-75
2024/01/28 15:17:19;;;;;;;;;5.50;4.00;;;;;;;;5088860;28;8811;-72
2024/01/28 15:19:44;;;;;;;;;5.00;5.00;;;;;;;;5083322;28;8824;-74
2024/01/28 15:22:10;;;;;;;;;5.00;5.00;;;;;;;;5060573;28;8808;-72
2024/01/28 15:24:35;;;;;;;;;3.50;3.50;;;;;;;;5070371;28;8815;-73
2024/01/28 15:27:00;;;;;;;;;5.50;5.00;;;;;;;;5070223;28;8799;-72
2024/01/28 15:29:26;;;;;;;;;6.50;5.50;;;;;;;;5069926;28;8788;-71
2024/01/28 15:31:51;;;;;;;;;6.75;3.50;;;;;;;;5070276;28;8871;-73
2024/01/28 15:34:16;;;;;;;;;5.75;5.00;;;;;;;;5081258;28;8813;-72
2024/01/28 15:36:42;;;;;;;;;7.00;5.00;;;;;;;;5090665;28;8817;-72
2024/01/28 15:39:08;;;;;;;;;5.00;5.00;;;;;;;;5092383;28;8782;-72
2024/01/28 15:41:33;;;;;;;;;5.00;5.00;;;;;;;;5094026;28;8794;-73
2024/01/28 15:43:59;;;;;;;;;10.75;6.00;;;;;;;;5094174;28;10803;-72
2024/01/28 15:46:25;;;;;;;;;7.00;6.00;;;;;;;;5094277;28;8758;-74
2024/01/28 15:48:50;;;;;;;;;12.25;9.50;;;;;;;;5093952;28;11480;-74
2024/01/28 15:51:15;;;;;;;;;8.50;8.50;;;;;;;;5092926;28;8840;-75
2024/01/28 15:53:41;;;;;;;;;12.00;9.75;;;;;;;;5087245;28;8770;-73
2024/01/28 15:56:08;;;;;;;;;16.25;11.00;;;;;;;;5094015;28;8893;-76
2024/01/28 15:58:33;;;;;;;;;11.00;11.00;;;;;;;;5135489;22;9035;-75
2024/01/28 16:00:58;;;;;;;;;17.25;13.50;;;;;;;;5033049;28;11366;-75
2024/01/28 16:03:24;;;;;;;;;9.75;9.00;;;;;;;;5032314;28;8816;-74
2024/01/28 16:05:49;;;;;;;;;11.00;9.00;;;;;;;;5030500;28;8911;-73
2024/01/28 16:08:15;;;;;;;;;10.25;8.50;;;;;;;;5030714;28;8800;-72
2024/01/28 16:10:40;;;;;;;;;10.00;10.00;;;;;;;;5031054;28;8823;-74
2024/01/28 16:13:06;;;;;;;;;11.00;10.75;;;;;;;;5031092;28;8788;-73
2024/01/28 16:15:31;;;;;;;;;11.50;7.50;;;;;;;;5031023;28;8785;-73
2024/01/28 16:17:57;;;;;;;;;10.25;9.75;;;;;;;;5031030;28;8804;-70
2024/01/28 16:20:22;;;;;;;;;12.25;10.00;;;;;;;;5032143;28;8859;-71
2024/01/28 16:22:47;;;;;;;;;14.00;10.00;;;;;;;;5032562;28;8912;-71
2024/01/28 16:25:13;;;;;;;;;11.00;11.00;;;;;;;;5032465;28;8812;-75
2024/01/28 16:27:38;;;;;;;;;10.50;10.50;;;;;;;;5032576;28;9584;-74
2024/01/28 16:30:04;;;;;;;;;10.25;8.50;;;;;;;;5014684;28;8789;-70
2024/01/28 16:32:29;;;;;;;;;16.50;15.00;;;;;;;;5032441;28;8773;-69
2024/01/28 16:34:54;;;;;;;;;14.25;13.00;;;;;;;;5032134;28;8797;-75
2024/01/28 16:37:20;;;;;;;;;15.00;11.00;;;;;;;;5030962;28;8793;-76
2024/01/28 16:39:47;;;;;;;;;11.00;10.00;;;;;;;;5032348;28;8792;-73
2024/01/28 16:42:13;;;;;;;;;13.25;13.25;;;;;;;;5032395;28;9580;-70
2024/01/28 16:44:38;;;;;;;;;18.50;18.00;;;;;;;;5032411;28;11421;-71
2024/01/28 16:47:04;;;;;;;;;24.00;21.75;;;;;;;;5032091;28;8780;-71
2024/01/28 16:49:29;;;;;;;;;19.50;15.00;;;;;;;;5031839;28;8796;-72
2024/01/28 16:51:54;;;;;;;;;14.75;13.75;;;;;;;;5031863;28;8815;-71
2024/01/28 16:54:20;;;;;;;;;15.00;14.75;;;;;;;;5032057;28;8907;-72
2024/01/28 16:56:45;;;;;;;;;17.50;17.00;;;;;;;;5031878;28;8808;-72
2024/01/28 16:59:11;;;;;;;;;12.50;11.00;;;;;;;;5031567;28;8905;-70
2024/01/28 17:01:37;;;;;;;;;10.00;10.00;;;;;;;;5031885;28;8931;-69
2024/01/28 17:04:02;;;;;;;;;11.00;11.00;;;;;;;;5031695;28;8828;-70
2024/01/28 17:06:28;;;;;;;;;18.00;16.50;;;;;;;;5031741;28;11482;-70
2024/01/28 17:08:53;;;;;;;;;15.00;13.00;;;;;;;;5030441;28;9557;-73
2024/01/28 17:11:18;;;;;;;;;22.00;16.00;;;;;;;;5031674;28;8843;-72
2024/01/28 17:13:44;;;;;;;;;18.25;17.00;;;;;;;;5031807;28;8800;-73
2024/01/28 17:16:09;;;;;;;;;21.25;17.00;;;;;;;;5013820;28;8930;-73
2024/01/28 17:18:36;;;;;;;;;17.25;16.75;;;;;;;;5013605;28;8808;-73
2024/01/28 17:21:01;;;;;;;;;17.25;17.00;;;;;;;;5031266;28;9538;-73
2024/01/28 17:23:27;;;;;;;;;18.00;16.25;;;;;;;;5031336;28;11464;-73
2024/01/28 17:25:52;;;;;;;;;22.00;19.75;;;;;;;;5013458;28;9590;-74
2024/01/28 17:28:18;;;;;;;;;18.25;17.00;;;;;;;;5031469;28;8788;-74
2024/01/28 17:30:43;;;;;;;;;24.50;20.75;;;;;;;;5030694;28;8812;-72
2024/01/28 17:33:08;;;;;;;;;20.50;18.50;;;;;;;;5015504;28;8816;-73
2024/01/28 17:35:34;;;;;;;;;20.00;18.75;;;;;;;;5023542;28;8848;-72
2024/01/28 17:37:59;;;;;;;;;57.00;48.00;;;;;;;;5021470;28;8816;-72
2024/01/28 17:40:25;;;;;;;;;53.00;45.50;;;;;;;;5021592;28;8847;-72
2024/01/28 17:42:50;;;;;;;;;28.50;24.50;;;;;;;;5016483;28;8832;-73
2024/01/28 17:45:15;;;;;;;;;30.50;30.50;;;;;;;;5011209;28;9694;-72
2024/01/28 17:47:41;;;;;;;;;44.00;35.50;;;;;;;;5011195;28;8817;-71
2024/01/28 17:50:07;;;;;;;;;40.75;33.00;;;;;;;;5011038;28;8905;-73
2024/01/28 17:52:32;;;;;;;;;46.25;35.75;;;;;;;;5011296;28;11766;-73
2024/01/28 17:54:57;;;;;;;;;26.75;24.00;;;;;;;;4993422;28;8807;-72
2024/01/28 17:57:25;;;;;;;;;25.25;21.00;;;;;;;;5000750;28;8840;-72
2024/01/28 17:59:51;;;;;;;;;22.00;19.50;;;;;;;;5020525;28;8882;-72
2024/01/28 18:02:16;;;;;;;;;19.50;19.50;;;;;;;;5020125;28;11504;-72
2024/01/28 18:04:42;;;;;;;;;19.75;18.00;;;;;;;;5004722;28;9580;-72
2024/01/28 18:07:07;;;;;;;;;22.50;19.75;;;;;;;;5021063;28;8847;-72
2024/01/28 18:09:32;;;;;;;;;16.50;12.75;;;;;;;;5019871;28;8831;-72
2024/01/28 18:11:58;;;;;;;;;20.25;17.00;;;;;;;;5020148;28;8935;-72
2024/01/28 18:14:23;;;;;;;;;20.75;20.75;;;;;;;;5021086;28;8794;-72
2024/01/28 18:16:48;;;;;;;;;19.50;19.25;;;;;;;;5019057;28;8819;-72
2024/01/28 18:19:14;;;;;;;;;22.25;21.00;;;;;;;;5022812;28;8789;-72
2024/01/28 18:21:39;;;;;;;;;33.50;29.75;;;;;;;;5028986;28;8836;-72
2024/01/28 18:24:05;;;;;;;;;34.00;31.00;;;;;;;;5020796;28;9557;-72
2024/01/28 18:26:31;;;;;;;;;32.00;29.25;;;;;;;;5021035;28;9515;-72
2024/01/28 18:28:56;;;;;;;;;30.75;29.75;;;;;;;;5020118;28;11526;-72
2024/01/28 18:31:21;;;;;;;;;42.25;39.75;;;;;;;;5011289;28;9441;-73
2024/01/28 18:33:49;;;;;;;;;40.50;35.50;;;;;;;;5017239;28;8800;-71
2024/01/28 18:36:14;;;;;;;;;35.75;29.75;;;;;;;;5028664;28;8827;-72
2024/01/28 18:38:39;;;;;;;;;43.25;31.25;;;;;;;;5030094;28;11585;-72
2024/01/28 18:41:08;;;;;;;;;46.50;36.50;;;;;;;;5029848;28;8832;-71
2024/01/28 18:43:33;;;;;;;;;29.75;28.00;;;;;;;;5030028;28;8829;-71
2024/01/28 18:45:59;;;;;;;;;39.00;34.25;;;;;;;;5029885;28;11497;-74
2024/01/28 18:48:24;;;;;;;;;34.50;31.00;;;;;;;;5030162;28;8784;-72
2024/01/28 18:50:50;;;;;;;;;37.25;30.25;;;;;;;;5030185;28;8918;-71
2024/01/28 18:53:16;;;;;;;;;24.00;17.50;;;;;;;;5030028;28;8820;-72
2024/01/28 18:55:41;;;;;;;;;37.75;37.00;;;;;;;;5030063;28;11488;-72
2024/01/28 18:58:07;;;;;;;;;42.00;36.50;;;;;;;;5028202;28;8798;-72
2024/01/28 19:00:35;;;;;;;;;29.50;28.00;;;;;;;;5025467;28;9700;-73
2024/01/28 19:03:05;;;;;;;;;37.50;32.50;;;;;;;;5020425;28;8785;-70
2024/01/28 19:05:31;;;;;;;;;32.75;24.25;;;;;;;;5029753;28;11490;-72
2024/01/28 19:07:56;;;;;;;;;29.50;26.25;;;;;;;;5029999;28;11535;-72
2024/01/28 19:10:22;;;;;;;;;30.00;26.00;;;;;;;;5023925;28;8828;-71
2024/01/28 19:12:48;;;;;;;;;27.50;23.00;;;;;;;;5019460;28;9562;-72
2024/01/28 19:15:13;;;;;;;;;29.75;23.00;;;;;;;;5026203;28;8808;-71
2024/01/28 19:17:38;;;;;;;;;24.00;23.00;;;;;;;;5025422;28;11567;-73
2024/01/28 19:20:04;;;;;;;;;24.75;22.25;;;;;;;;5025079;28;8915;-72
2024/01/28 19:22:30;;;;;;;;;33.00;23.50;;;;;;;;5029463;28;8829;-71
2024/01/28 19:24:55;;;;;;;;;32.00;29.50;;;;;;;;5022690;28;8862;-71
2024/01/28 19:27:20;;;;;;;;;27.00;24.25;;;;;;;;4996126;28;8807;-71
2024/01/28 19:29:46;;;;;;;;;26.25;25.25;;;;;;;;5013560;28;8823;-71
2024/01/28 19:32:11;;;;;;;;;26.50;21.00;;;;;;;;5013554;28;8926;-70
2024/01/28 19:34:36;;;;;;;;;28.25;24.25;;;;;;;;5019053;28;8827;-72
2024/01/28 19:37:01;;;;;;;;;27.00;24.50;;;;;;;;5013272;28;8824;-70
2024/01/28 19:39:31;;;;;;;;;35.25;30.50;;;;;;;;5013618;28;8799;-72
2024/01/28 19:41:57;;;;;;;;;32.50;30.00;;;;;;;;5013480;28;8965;-76
2024/01/28 19:44:22;;;;;;;;;34.00;31.75;;;;;;;;4995550;28;11673;-71
2024/01/28 19:46:47;;;;;;;;;33.25;29.25;;;;;;;;5013179;28;8876;-70
2024/01/28 19:49:13;;;;;;;;;32.75;29.75;;;;;;;;5012738;28;8828;-72
2024/01/28 19:51:38;;;;;;;;;32.75;32.50;;;;;;;;5001192;28;8820;-71
2024/01/28 19:54:04;;;;;;;;;36.75;33.75;;;;;;;;5022140;28;8814;-70
2024/01/28 19:56:29;;;;;;;;;34.25;31.00;;;;;;;;5021515;28;9423;-71
2024/01/28 19:58:55;;;;;;;;;42.50;37.00;;;;;;;;5026916;28;8820;-72
2024/01/28 20:01:21;;;;;;;;;39.25;33.50;;;;;;;;5032796;28;8963;-71
2024/01/28 20:03:46;;;;;;;;;31.25;29.00;;;;;;;;5029438;28;11596;-71
2024/01/28 20:06:11;;;;;;;;;33.00;29.75;;;;;;;;5011882;28;8815;-71
2024/01/28 20:08:37;;;;;;;;;30.00;30.00;;;;;;;;5013134;28;8978;-71
2024/01/28 20:11:02;;;;;;;;;33.75;31.75;;;;;;;;5013022;28;8824;-72
2024/01/28 20:13:27;;;;;;;;;25.75;21.00;;;;;;;;5012947;28;8800;-71
2024/01/28 20:15:53;;;;;;;;;34.00;29.75;;;;;;;;5011445;28;8857;-70
2024/01/28 20:18:22;;;;;;;;;33.00;31.00;;;;;;;;5012777;28;8893;-70
2024/01/28 20:20:48;;;;;;;;;42.75;33.00;;;;;;;;5012620;28;8822;-70
2024/01/28 20:23:14;;;;;;;;;35.25;29.50;;;;;;;;5012188;28;12251;-69
2024/01/28 20:25:40;;;;;;;;;31.50;26.25;;;;;;;;5014863;28;8815;-71
2024/01/28 20:28:05;;;;;;;;;16.00;15.75;;;;;;;;5032392;28;11492;-69
2024/01/28 20:30:31;;;;;;;;;32.00;25.00;;;;;;;;5032287;28;8861;-70
2024/01/28 20:32:57;;;;;;;;;19.75;19.50;;;;;;;;5032430;28;8799;-72
2024/01/28 20:35:24;;;;;;;;;20.75;16.50;;;;;;;;5010909;28;11544;-70
2024/01/28 20:37:51;;;;;;;;;29.50;24.00;;;;;;;;5020041;28;11522;-70
2024/01/28 20:40:17;;;;;;;;;31.00;25.00;;;;;;;;5022661;28;11562;-69
2024/01/28 20:42:49;;;;;;;;;31.00;28.50;;;;;;;;5022611;28;11493;-75
2024/01/28 20:45:16;;;;;;;;;31.00;24.75;;;;;;;;5018517;28;11515;-70
2024/01/28 20:47:41;;;;;;;;;38.00;32.25;;;;;;;;5021200;28;11513;-72
2024/01/28 20:50:07;;;;;;;;;32.50;29.50;;;;;;;;5020820;28;12320;-71
2024/01/28 20:52:32;;;;;;;;;37.00;31.00;;;;;;;;5022460;28;8808;-71
2024/01/28 20:54:57;;;;;;;;;31.00;29.25;;;;;;;;5017991;28;8783;-71
2024/01/28 20:57:22;;;;;;;;;30.50;26.25;;;;;;;;5021811;28;8812;-70
2024/01/28 20:59:48;;;;;;;;;30.50;27.75;;;;;;;;5025264;28;8818;-71
2024/01/28 21:02:13;;;;;;;;;28.50;25.25;;;;;;;;5032067;28;8820;-69
2024/01/28 21:04:38;;;;;;;;;32.25;29.00;;;;;;;;5031740;28;8812;-70
2024/01/28 21:07:04;;;;;;;;;27.00;24.75;;;;;;;;5031402;28;8792;-73
2024/01/28 21:09:29;;;;;;;;;31.25;30.75;;;;;;;;5031864;28;9626;-71
2024/01/28 21:11:54;;;;;;;;;31.00;30.25;;;;;;;;5027420;28;8955;-72
2024/01/28 21:14:20;;;;;;;;;27.00;24.50;;;;;;;;5021143;28;8933;-70
2024/01/28 21:16:45;;;;;;;;;32.75;29.50;;;;;;;;5020483;28;8781;-72
2024/01/28 21:19:11;;;;;;;;;33.00;30.00;;;;;;;;5022240;28;8854;-72
2024/01/28 21:21:42;;;;;;;;;49.67;40.33;;;;;;;;5020068;28;8876;-72
2024/01/28 21:24:08;;;;;;;;;50.00;41.00;;;;;;;;5029720;28;8812;-71
2024/01/28 21:26:34;;;;;;;;;42.67;38.33;;;;;;;;5021987;28;11634;-73
2024/01/28 21:28:59;;;;;;;;;45.00;38.00;;;;;;;;5020830;28;11486;-73
2024/01/28 21:31:24;;;;;;;;;38.00;37.33;;;;;;;;5020587;28;8903;-72
2024/01/28 21:33:50;;;;;;;;;39.33;37.00;;;;;;;;5024481;28;8958;-71
2024/01/28 21:36:16;;;;;;;;;40.00;36.67;;;;;;;;5019449;28;8811;-72
2024/01/28 21:38:42;;;;;;;;;43.33;37.33;;;;;;;;5002792;28;8835;-73
2024/01/28 21:41:07;;;;;;;;;41.33;37.33;;;;;;;;5021672;28;8836;-73
2024/01/28 21:43:33;;;;;;;;;38.33;34.33;;;;;;;;5019965;28;8833;-72
2024/01/28 21:45:58;;;;;;;;;40.33;36.33;;;;;;;;5020769;28;8819;-72
2024/01/28 21:48:23;;;;;;;;;41.00;32.67;;;;;;;;5001356;28;8806;-69
2024/01/28 21:50:48;;;;;;;;;37.33;37.33;;;;;;;;5021128;28;8871;-69
2024/01/28 21:53:14;;;;;;;;;36.33;33.67;;;;;;;;5019841;28;8799;-69
2024/01/28 21:55:41;;;;;;;;;29.00;28.25;;;;;;;;5020340;28;8789;-69
2024/01/28 21:58:06;;;;;;;;;38.00;31.67;;;;;;;;5021408;28;8815;-69
2024/01/28 22:00:32;;;;;;;;;43.00;33.67;;;;;;;;5021321;28;11741;-69
2024/01/28 22:02:57;;;;;;;;;36.67;33.00;;;;;;;;5020265;28;8810;-70
2024/01/28 22:05:22;;;;;;;;;43.00;35.67;;;;;;;;5022710;28;8835;-69
2024/01/28 22:07:48;;;;;;;;;31.67;29.33;;;;;;;;5021039;28;8793;-71
2024/01/28 22:10:15;;;;;;;;;30.25;27.00;;;;;;;;5001691;28;8853;-69
2024/01/28 22:12:40;;;;;;;;;38.33;34.00;;;;;;;;5019984;28;8777;-74
2024/01/28 22:15:07;;;;;;;;;30.33;29.33;;;;;;;;5021045;28;11632;-75
2024/01/28 22:17:32;;;;;;;;;34.33;34.00;;;;;;;;5003709;28;8946;-78
2024/01/28 22:19:57;;;;;;;;;32.00;30.33;;;;;;;;5019717;28;11645;-74
2024/01/28 22:22:23;;;;;;;;;36.00;35.00;;;;;;;;5021185;28;8840;-73
2024/01/28 22:24:48;;;;;;;;;32.33;29.00;;;;;;;;5028092;28;8863;-73
2024/01/28 22:27:13;;;;;;;;;32.33;29.33;;;;;;;;5018978;28;9525;-70
2024/01/28 22:29:39;;;;;;;;;35.00;32.00;;;;;;;;5019900;28;8800;-70
2024/01/28 22:32:04;;;;;;;;;31.00;26.67;;;;;;;;5020391;28;8814;-70
2024/01/28 22:34:30;;;;;;;;;41.00;34.67;;;;;;;;5022167;28;8873;-73
2024/01/28 22:36:56;;;;;;;;;28.00;27.00;;;;;;;;5019045;28;8826;-71
2024/01/28 22:39:21;;;;;;;;;34.33;31.33;;;;;;;;5019222;28;11491;-71
2024/01/28 22:41:46;;;;;;;;;37.67;28.33;;;;;;;;5024756;28;8819;-71
2024/01/28 22:44:11;;;;;;;;;33.67;28.33;;;;;;;;5020505;28;8797;-71
2024/01/28 22:46:37;;;;;;;;;27.67;26.67;;;;;;;;5001349;28;8814;-71
2024/01/28 22:49:03;;;;;;;;;34.33;32.67;;;;;;;;5019233;28;8914;-71
2024/01/28 22:51:28;;;;;;;;;34.67;34.33;;;;;;;;5020245;28;8918;-70
2024/01/28 22:53:55;;;;;;;;;6.33;5.00;;;;;;;;5018824;28;8799;-71
2024/01/28 22:56:20;;;;;;;;;34.00;34.00;;;;;;;;5019707;28;9651;-70
2024/01/28 22:58:46;;;;;;;;;29.67;26.00;;;;;;;;5020248;28;11531;-70
2024/01/28 23:01:12;;;;;;;;;26.33;25.67;;;;;;;;5025289;28;8974;-72
2024/01/28 23:03:38;;;;;;;;;38.67;35.00;;;;;;;;5026379;28;11489;-70
2024/01/28 23:06:03;;;;;;;;;30.00;28.33;;;;;;;;5018378;28;11484;-75
2024/01/28 23:08:32;;;;;;;;;31.67;26.67;;;;;;;;5020306;28;8785;-75
2024/01/28 23:10:57;;;;;;;;;28.67;28.67;;;;;;;;5019088;28;8810;-73
2024/01/28 23:13:22;;;;;;;;;35.00;29.67;;;;;;;;5018903;28;11538;-75
2024/01/28 23:15:48;;;;;;;;;30.00;26.67;;;;;;;;5002054;28;8801;-72
2024/01/28 23:18:14;;;;;;;;;32.67;28.33;;;;;;;;5000494;28;8865;-73
2024/01/28 23:20:39;;;;;;;;;29.00;29.00;;;;;;;;5019146;28;11518;-75
2024/01/28 23:23:04;;;;;;;;;29.33;26.00;;;;;;;;5019950;28;8787;-71
2024/01/28 23:25:30;;;;;;;;;28.67;26.33;;;;;;;;5018491;28;8799;-71
2024/01/28 23:27:55;;;;;;;;;24.00;21.67;;;;;;;;5020235;28;8827;-71
2024/01/28 23:30:20;;;;;;;;;27.00;27.00;;;;;;;;5019464;28;8795;-71
2024/01/28 23:32:46;;;;;;;;;26.00;26.00;;;;;;;;5018548;28;8819;-71
2024/01/28 23:35:11;;;;;;;;;22.67;22.67;;;;;;;;5005330;28;8828;-70
2024/01/28 23:37:37;;;;;;;;;30.33;28.67;;;;;;;;5018867;28;8798;-70
2024/01/28 23:40:06;;;;;;;;;26.33;23.33;;;;;;;;5019009;28;8792;-71
2024/01/28 23:42:31;;;;;;;;;30.00;26.67;;;;;;;;5020387;28;11628;-71
2024/01/28 23:44:57;;;;;;;;;28.00;24.33;;;;;;;;5018767;28;11615;-71
2024/01/28 23:47:23;;;;;;;;;26.33;26.33;;;;;;;;5019221;28;8928;-70
2024/01/28 23:49:48;;;;;;;;;36.00;29.00;;;;;;;;5020301;28;8944;-71
